Time;durP1;ratioP1;P1;durP2;ratioP2;P2;SDS_P1;SDS_P2;PMS_P1;PMS_P2;Temp;Humidity;BMP_temperature;BMP_pressure;BME280_temperature;BME280_humidity;BME280_pressure;Samples;Min_cycle;Max_cycle;Signal;HPM_P1;HPM_P2
2023/01/28 00:00:38;;;;;;;19.73;13.23;;;;;;;-0.12;100.00;93961.53;6273718;22;20207;-74
2023/01/28 00:03:05;;;;;;;20.47;12.73;;;;;;;-0.12;100.00;93960.72;6274211;22;20519;-74
2023/01/28 00:05:32;;;;;;;15.57;10.30;;;;;;;-0.07;100.00;93966.09;6273805;22;20169;-74
2023/01/28 00:08:01;;;;;;;15.40;9.10;;;;;;;-0.13;100.00;93966.78;6274129;22;20161;-74
2023/01/28 00:10:27;;;;;;;12.27;7.97;;;;;;;-0.17;100.00;93973.97;6274047;22;20609;-74
2023/01/28 00:12:55;;;;;;;13.07;8.10;;;;;;;-0.20;100.00;93963.31;6273472;22;20640;-74
2023/01/28 00:15:25;;;;;;;11.50;7.90;;;;;;;-0.17;100.00;93984.19;6273796;22;20172;-76
2023/01/28 00:17:52;;;;;;;12.97;8.17;;;;;;;-0.20;100.00;93984.53;6273407;22;20198;-74
2023/01/28 00:20:45;;;;;;;17.07;10.13;;;;;;;-0.15;100.00;93986.59;6273632;22;20640;-75
2023/01/28 00:23:13;;;;;;;13.77;8.27;;;;;;;-0.13;100.00;93990.56;6273479;22;20259;-73
2023/01/28 00:25:40;;;;;;;14.23;9.63;;;;;;;0.00;100.00;93990.00;6273308;22;20172;-73
2023/01/28 00:28:07;;;;;;;12.30;8.60;;;;;;;-0.01;100.00;93985.84;6273199;22;20658;-73
2023/01/28 00:30:33;;;;;;;14.50;9.33;;;;;;;-0.01;100.00;93991.75;6272837;22;20170;-75
2023/01/28 00:33:00;;;;;;;18.53;10.67;;;;;;;-0.02;100.00;93995.28;6272504;22;20277;-75
2023/01/28 00:35:28;;;;;;;15.87;10.07;;;;;;;0.12;100.00;93998.03;6272798;22;20176;-76
2023/01/28 00:37:55;;;;;;;17.40;11.50;;;;;;;0.11;100.00;93999.03;6273074;22;20548;-77
2023/01/28 00:40:23;;;;;;;19.57;12.43;;;;;;;0.21;100.00;94005.47;6273789;22;20165;-76
2023/01/28 00:42:50;;;;;;;15.67;10.20;;;;;;;0.26;100.00;94002.44;6273673;22;20581;-76
2023/01/28 00:45:17;;;;;;;13.80;9.13;;;;;;;0.21;100.00;94000.38;6273648;22;20184;-74
2023/01/28 00:47:44;;;;;;;18.57;10.43;;;;;;;0.22;100.00;94006.28;6273278;22;20164;-75
2023/01/28 00:50:11;;;;;;;23.00;12.13;;;;;;;0.27;100.00;94001.44;6273643;22;20173;-75
2023/01/28 00:52:38;;;;;;;25.37;14.90;;;;;;;0.13;100.00;94005.53;6273754;22;20171;-75
2023/01/28 00:55:08;;;;;;;29.40;16.30;;;;;;;0.02;100.00;93997.47;6273304;22;20181;-75
2023/01/28 00:57:36;;;;;;;23.77;15.07;;;;;;;-0.02;100.00;94005.47;6274109;22;20169;-75
2023/01/28 01:00:06;;;;;;;22.87;14.57;;;;;;;-0.16;100.00;93993.44;6272215;22;20176;-76
2023/01/28 01:02:32;;;;;;;22.57;14.27;;;;;;;-0.13;100.00;94008.44;6272804;22;20165;-74
2023/01/28 01:04:59;;;;;;;21.90;13.60;;;;;;;-0.13;100.00;94010.97;6272577;22;20169;-74
2023/01/28 01:07:33;;;;;;;18.37;12.40;;;;;;;0.01;100.00;94012.00;6273215;22;20179;-74
2023/01/28 01:10:01;;;;;;;19.27;12.57;;;;;;;-0.01;100.00;94004.53;6273422;22;20154;-75
2023/01/28 01:12:28;;;;;;;18.63;11.30;;;;;;;-0.19;100.00;94003.19;6273354;22;20173;-74
2023/01/28 01:14:56;;;;;;;17.23;11.40;;;;;;;-0.14;100.00;94006.84;6272445;22;20170;-75
2023/01/28 01:17:23;;;;;;;20.60;12.07;;;;;;;-0.22;100.00;94012.00;6273490;22;20212;-75
2023/01/28 01:19:50;;;;;;;18.43;11.93;;;;;;;-0.09;100.00;94014.78;6273591;22;20169;-80
2023/01/28 01:22:17;;;;;;;16.47;9.33;;;;;;;0.00;100.00;94018.09;6273319;22;20268;-75
2023/01/28 01:24:44;;;;;;;14.57;9.27;;;;;;;-0.06;100.00;94017.00;6273449;22;20193;-75
2023/01/28 01:27:10;;;;;;;16.03;10.03;;;;;;;-0.10;100.00;94005.53;6273856;22;20164;-75
2023/01/28 01:29:38;;;;;;;13.70;9.07;;;;;;;0.02;100.00;94012.81;6272216;22;20169;-75
2023/01/28 01:32:06;;;;;;;12.60;8.53;;;;;;;0.09;100.00;94024.72;6273516;22;20192;-75
2023/01/28 01:34:33;;;;;;;13.90;9.13;;;;;;;0.13;100.00;94025.19;6272980;22;20172;-75
2023/01/28 01:36:59;;;;;;;14.20;8.27;;;;;;;0.01;100.00;94019.66;6272442;22;20169;-76
2023/01/28 01:39:26;;;;;;;13.93;8.57;;;;;;;0.04;100.00;94018.53;6273464;22;20177;-75
2023/01/28 01:41:53;;;;;;;13.60;8.13;;;;;;;-0.14;100.00;94027.25;6272006;22;20169;-75
2023/01/28 01:45:05;;;;;;;14.83;9.60;;;;;;;-0.04;100.00;94021.94;6272424;22;20192;-75
2023/01/28 01:47:41;;;;;;;13.87;8.97;;;;;;;-0.01;100.00;94024.16;6200783;22;20172;-73
2023/01/28 01:50:16;;;;;;;15.17;9.80;;;;;;;0.07;100.00;94021.53;6272574;22;20154;-75
2023/01/28 01:52:45;;;;;;;16.33;9.60;;;;;;;0.11;100.00;94017.69;6272985;22;20161;-75
2023/01/28 01:55:16;;;;;;;14.63;9.60;;;;;;;0.14;100.00;94019.13;6272972;22;20177;-75
2023/01/28 01:57:45;;;;;;;16.10;10.27;;;;;;;0.16;100.00;94019.72;6272283;22;20158;-75
2023/01/28 02:00:12;;;;;;;16.23;10.87;;;;;;;0.22;100.00;94019.84;6273719;22;20172;-76
2023/01/28 02:02:43;;;;;;;16.23;10.13;;;;;;;0.26;100.00;94020.31;6273015;22;20169;-76
2023/01/28 02:05:11;;;;;;;16.63;10.53;;;;;;;0.30;100.00;94026.66;6272862;22;20179;-76
2023/01/28 02:07:39;;;;;;;17.73;11.07;;;;;;;0.31;100.00;94030.81;6275114;22;20198;-76
2023/01/28 02:10:08;;;;;;;14.53;9.20;;;;;;;0.31;100.00;94039.25;6274782;22;20162;-76
2023/01/28 02:12:37;;;;;;;14.00;9.07;;;;;;;0.27;100.00;94032.91;6274927;22;20181;-77
2023/01/28 02:15:07;;;;;;;15.93;9.67;;;;;;;0.27;100.00;94037.19;6274864;22;20169;-76
2023/01/28 02:17:35;;;;;;;14.90;10.20;;;;;;;0.30;100.00;94039.41;6274448;22;20198;-76
2023/01/28 02:20:07;;;;;;;15.97;9.77;;;;;;;0.30;100.00;94045.31;6274857;22;20235;-76
2023/01/28 02:23:15;;;;;;;14.93;10.07;;;;;;;0.17;100.00;94039.22;6275063;22;20164;-76
2023/01/28 02:26:41;;;;;;;12.63;8.80;;;;;;;0.13;100.00;94036.19;6269441;22;20195;-75
2023/01/28 02:29:15;;;;;;;15.93;9.53;;;;;;;0.15;100.00;94036.81;6274469;22;20173;-76
2023/01/28 02:31:51;;;;;;;13.57;9.10;;;;;;;0.19;100.00;94035.50;6274437;22;20164;-76
2023/01/28 02:34:24;;;;;;;14.80;9.53;;;;;;;0.26;100.00;94030.53;6275225;22;20149;-75
2023/01/28 02:36:55;;;;;;;12.40;8.33;;;;;;;0.21;100.00;94036.13;6274746;22;20590;-76
2023/01/28 02:39:24;;;;;;;12.43;8.30;;;;;;;0.19;100.00;94027.06;6274682;22;20165;-76
2023/01/28 02:41:57;;;;;;;12.63;8.57;;;;;;;0.13;100.00;94037.94;6275046;22;20169;-76
2023/01/28 02:44:25;;;;;;;12.67;8.10;;;;;;;0.13;100.00;94037.94;6274704;22;20255;-76
2023/01/28 02:49:40;;;;;;;12.37;8.33;;;;;;;-0.11;100.00;94037.13;6275012;22;20246;-76
2023/01/28 02:52:17;;;;;;;15.30;8.73;;;;;;;-0.19;100.00;94038.94;6274863;22;20165;-77
2023/01/28 02:54:52;;;;;;;13.80;9.07;;;;;;;-0.04;100.00;94039.81;6274883;22;20154;-74
2023/01/28 02:57:37;;;;;;;11.73;8.10;;;;;;;-0.03;100.00;94031.19;6274695;22;20181;-74
2023/01/28 03:00:12;;;;;;;12.97;7.97;;;;;;;-0.06;100.00;94042.50;6274542;22;20150;-74
2023/01/28 03:02:47;;;;;;;12.37;8.20;;;;;;;-0.09;100.00;94040.31;6275199;22;20158;-73
2023/01/28 03:05:21;;;;;;;11.10;7.80;;;;;;;-0.16;100.00;94036.84;6274472;22;20580;-73
2023/01/28 03:07:49;;;;;;;14.53;8.37;;;;;;;-0.17;100.00;94047.22;6274845;22;20212;-73
2023/01/28 03:10:19;;;;;;;12.53;8.47;;;;;;;-0.32;100.00;94047.16;6274829;22;20174;-73
2023/01/28 03:38:17;;;;;;;14.37;9.43;;;;;;;0.10;100.00;94054.41;6274265;22;20289;-75
2023/01/28 03:40:50;;;;;;;14.87;9.40;;;;;;;0.01;100.00;94055.41;6274455;22;20185;-74
2023/01/28 03:43:17;;;;;;;14.83;9.50;;;;;;;-0.15;100.00;94063.19;6274724;22;20214;-74
2023/01/28 03:45:45;;;;;;;14.53;9.57;;;;;;;-0.14;100.00;94063.00;6274528;22;20252;-74
2023/01/28 03:48:14;;;;;;;14.97;9.43;;;;;;;-0.12;100.00;94066.19;6274120;22;20168;-74
2023/01/28 03:50:41;;;;;;;16.67;11.33;;;;;;;-0.11;100.00;94061.84;6274301;22;20169;-74
2023/01/28 03:53:12;;;;;;;15.00;9.97;;;;;;;-0.24;100.00;94062.41;6273965;22;20204;-74
2023/01/28 03:55:39;;;;;;;15.93;10.67;;;;;;;-0.32;100.00;94071.88;6273966;22;20207;-74
2023/01/28 03:58:06;;;;;;;16.47;10.07;;;;;;;-0.28;100.00;94062.91;6274499;22;20169;-74
2023/01/28 04:00:33;;;;;;;17.47;11.67;;;;;;;-0.23;100.00;94065.78;6274698;22;20164;-75
2023/01/28 04:03:00;;;;;;;16.20;10.33;;;;;;;-0.26;100.00;94066.09;6274008;22;20172;-75
2023/01/28 04:05:28;;;;;;;14.63;10.07;;;;;;;-0.31;100.00;94076.78;6274808;22;20220;-76
2023/01/28 04:07:56;;;;;;;13.87;9.63;;;;;;;-0.22;100.00;94075.81;6273475;22;20229;-74
2023/01/28 04:10:22;;;;;;;14.67;9.97;;;;;;;-0.16;100.00;94070.03;6273994;22;20172;-77
2023/01/28 04:12:50;;;;;;;15.80;9.47;;;;;;;-0.12;100.00;94083.25;6273721;22;20169;-75
2023/01/28 04:15:17;;;;;;;15.83;9.70;;;;;;;-0.18;100.00;94079.63;6273718;22;20716;-76
2023/01/28 04:17:47;;;;;;;14.93;10.03;;;;;;;-0.25;100.00;94085.53;6273895;22;20695;-75
2023/01/28 04:20:14;;;;;;;14.83;9.77;;;;;;;-0.37;100.00;94089.41;6274209;22;20169;-74
2023/01/28 04:22:43;;;;;;;10.80;7.87;;;;;;;-0.44;100.00;94088.50;6273347;22;20173;-74
2023/01/28 04:25:10;;;;;;;12.37;8.50;;;;;;;-0.53;100.00;94080.09;6273876;22;20571;-73
2023/01/28 04:27:37;;;;;;;13.13;9.10;;;;;;;-0.38;100.00;94080.19;6274134;22;20501;-72
2023/01/28 04:30:04;;;;;;;14.20;9.30;;;;;;;-0.45;100.00;94085.16;6273513;22;20176;-73
2023/01/28 04:32:31;;;;;;;14.63;9.07;;;;;;;-0.43;100.00;94095.97;6273750;22;20168;-75
2023/01/28 04:34:58;;;;;;;14.03;9.10;;;;;;;-0.43;100.00;94092.66;6273394;22;20548;-75
2023/01/28 04:37:25;;;;;;;14.67;9.53;;;;;;;-0.33;100.00;94094.03;6273029;22;20169;-73
2023/01/28 04:39:53;;;;;;;13.13;8.90;;;;;;;-0.24;100.00;94102.47;6273163;22;20169;-73
2023/01/28 04:42:20;;;;;;;11.27;7.63;;;;;;;-0.31;100.00;94109.97;6272713;22;20634;-73
2023/01/28 04:44:47;;;;;;;13.63;9.47;;;;;;;-0.28;100.00;94103.75;6272833;22;20196;-73
2023/01/28 04:47:13;;;;;;;16.57;10.37;;;;;;;-0.21;100.00;94109.78;6273879;22;20170;-73
2023/01/28 04:49:40;;;;;;;16.80;10.20;;;;;;;-0.20;100.00;94114.72;6273380;22;20219;-74
2023/01/28 04:52:07;;;;;;;15.00;9.90;;;;;;;-0.32;100.00;94118.63;6273519;22;20231;-73
2023/01/28 04:54:34;;;;;;;15.87;10.33;;;;;;;-0.36;100.00;94119.09;6274124;22;20169;-73
2023/01/28 04:57:03;;;;;;;16.43;10.63;;;;;;;-0.40;100.00;94121.16;6272950;22;20623;-73
2023/01/28 04:59:30;;;;;;;15.77;10.90;;;;;;;-0.49;100.00;94118.81;6273623;22;20238;-72
2023/01/28 05:01:56;;;;;;;14.60;10.00;;;;;;;-0.52;100.00;94125.06;6273424;22;20514;-73
2023/01/28 05:04:23;;;;;;;15.30;10.40;;;;;;;-0.51;100.00;94126.63;6273084;22;20193;-73
2023/01/28 05:06:52;;;;;;;13.13;9.00;;;;;;;-0.42;100.00;94125.66;6273065;22;20172;-73
2023/01/28 05:09:19;;;;;;;14.53;9.87;;;;;;;-0.38;100.00;94126.94;6272970;22;20181;-73
2023/01/28 05:11:46;;;;;;;13.80;8.70;;;;;;;-0.38;100.00;94132.03;6273262;22;20616;-74
2023/01/28 05:14:14;;;;;;;13.20;8.87;;;;;;;-0.45;100.00;94114.97;6273989;22;20172;-73
2023/01/28 05:16:41;;;;;;;12.30;8.73;;;;;;;-0.29;100.00;94141.22;6272513;22;20169;-74
2023/01/28 05:19:07;;;;;;;16.33;9.60;;;;;;;-0.32;100.00;94143.34;6272847;22;20157;-74
2023/01/28 05:21:34;;;;;;;14.97;9.27;;;;;;;-0.26;100.00;94145.22;6272932;22;20169;-74
2023/01/28 05:24:01;;;;;;;14.87;9.53;;;;;;;-0.23;100.00;94145.69;6273066;22;20193;-74
2023/01/28 05:26:28;;;;;;;21.00;10.87;;;;;;;-0.21;100.00;94148.88;6273913;22;20176;-74
2023/01/28 05:28:54;;;;;;;16.83;10.27;;;;;;;-0.30;100.00;94144.75;6273322;22;20223;-74
2023/01/28 05:31:23;;;;;;;13.90;9.57;;;;;;;-0.23;100.00;94150.78;6273083;22;20169;-74
2023/01/28 05:33:51;;;;;;;12.40;8.77;;;;;;;-0.19;100.00;94152.06;6273267;22;20173;-74
2023/01/28 05:36:18;;;;;;;13.00;8.57;;;;;;;-0.35;100.00;94147.00;6273199;22;20200;-75
2023/01/28 05:38:45;;;;;;;14.70;9.70;;;;;;;-0.46;100.00;94155.00;6272733;22;20179;-75
2023/01/28 05:41:12;;;;;;;17.83;11.47;;;;;;;-0.51;100.00;94156.44;6273659;22;20169;-76
2023/01/28 05:43:38;;;;;;;18.50;11.67;;;;;;;-0.47;100.00;94153.41;6272185;22;20169;-76
2023/01/28 05:46:06;;;;;;;19.77;11.67;;;;;;;-0.41;100.00;94168.09;6272898;22;20251;-74
2023/01/28 05:48:34;;;;;;;17.73;11.90;;;;;;;-0.30;100.00;94165.19;6272469;22;20165;-76
2023/01/28 05:51:00;;;;;;;16.10;11.37;;;;;;;-0.25;100.00;94157.81;6272643;22;20168;-74
2023/01/28 05:53:28;;;;;;;19.23;12.00;;;;;;;-0.36;100.00;94167.56;6273479;22;20165;-74
2023/01/28 05:55:54;;;;;;;15.30;9.57;;;;;;;-0.35;100.00;94162.31;6273193;22;20686;-75
2023/01/28 05:58:21;;;;;;;20.80;11.43;;;;;;;-0.30;100.00;94165.19;6272787;22;20231;-76
2023/01/28 06:00:48;;;;;;;14.77;9.93;;;;;;;-0.32;100.00;94161.19;6273050;22;20164;-76
2023/01/28 06:03:15;;;;;;;16.77;9.53;;;;;;;-0.29;100.00;94165.97;6273338;22;20169;-76
2023/01/28 06:05:43;;;;;;;14.93;10.30;;;;;;;-0.37;100.00;94169.31;6272038;22;20197;-76
2023/01/28 06:08:10;;;;;;;13.53;8.80;;;;;;;-0.50;100.00;94176.72;6272854;22;20169;-75
2023/01/28 06:10:37;;;;;;;16.30;10.37;;;;;;;-0.60;100.00;94184.53;6272723;22;20221;-76
2023/01/28 06:13:19;;;;;;;14.53;9.50;;;;;;;-0.62;100.00;94189.00;6272480;22;20639;-77
2023/01/28 06:15:49;;;;;;;15.73;10.07;;;;;;;-0.51;100.00;94187.06;6272110;22;20168;-76
2023/01/28 06:18:16;;;;;;;17.57;10.23;;;;;;;-0.51;100.00;94192.97;6272329;22;20228;-76
2023/01/28 06:20:44;;;;;;;16.27;10.57;;;;;;;-0.60;100.00;94196.47;6272489;22;20230;-75
2023/01/28 06:23:11;;;;;;;20.33;12.50;;;;;;;-0.57;100.00;94203.81;6273593;22;20165;-76
2023/01/28 06:25:38;;;;;;;20.83;13.73;;;;;;;-0.62;100.00;94206.88;6272763;22;20197;-75
2023/01/28 06:28:05;;;;;;;22.67;14.27;;;;;;;-0.54;100.00;94208.59;6273050;22;20167;-72
2023/01/28 06:30:32;;;;;;;17.33;11.43;;;;;;;-0.48;100.00;94213.06;6273158;22;20169;-72
2023/01/28 06:32:58;;;;;;;17.77;11.63;;;;;;;-0.53;100.00;94212.75;6271430;22;20165;-71
2023/01/28 06:35:25;;;;;;;19.17;11.43;;;;;;;-0.48;100.00;94217.34;6272563;22;20161;-75
2023/01/28 06:37:54;;;;;;;23.37;12.67;;;;;;;-0.55;100.00;94211.31;6273231;22;20169;-71
2023/01/28 06:40:21;;;;;;;18.20;10.73;;;;;;;-0.36;100.00;94224.53;6272672;22;20202;-72
2023/01/28 06:42:49;;;;;;;16.57;10.67;;;;;;;-0.35;100.00;94221.03;6273045;22;20211;-72
2023/01/28 06:45:15;;;;;;;17.27;10.23;;;;;;;-0.29;100.00;94227.22;6272693;22;20196;-72
2023/01/28 06:47:42;;;;;;;14.03;9.40;;;;;;;-0.48;100.00;94233.47;6272753;22;20176;-72
2023/01/28 06:50:10;;;;;;;14.87;9.10;;;;;;;-0.43;100.00;94245.75;6273090;22;20165;-71
2023/01/28 06:52:40;;;;;;;15.83;9.43;;;;;;;-0.49;100.00;94239.50;6273510;22;20165;-71
2023/01/28 06:55:09;;;;;;;19.10;10.37;;;;;;;-0.54;100.00;94246.88;6274280;22;20200;-72
2023/01/28 06:57:38;;;;;;;20.67;11.23;;;;;;;-0.53;100.00;94247.66;6274644;22;20176;-71
2023/01/28 07:00:07;;;;;;;18.73;11.27;;;;;;;-0.51;100.00;94243.19;6274777;22;20164;-72
2023/01/28 07:02:33;;;;;;;17.40;11.23;;;;;;;-0.49;100.00;94242.06;6274383;22;20226;-72
2023/01/28 07:05:01;;;;;;;15.17;10.20;;;;;;;-0.51;100.00;94249.09;6274535;22;20193;-72
2023/01/28 07:07:28;;;;;;;19.83;12.03;;;;;;;-0.54;100.00;94251.16;6274255;22;20253;-72
2023/01/28 07:09:54;;;;;;;18.80;11.27;;;;;;;-0.63;100.00;94247.81;6274448;22;20555;-72
2023/01/28 07:12:23;;;;;;;20.30;11.90;;;;;;;-0.54;100.00;94256.28;6274116;22;20493;-74
2023/01/28 07:14:49;;;;;;;22.00;13.03;;;;;;;-0.64;100.00;94254.69;6274089;22;20168;-72
2023/01/28 07:17:16;;;;;;;17.77;11.30;;;;;;;-0.43;100.00;94266.16;6274340;22;20197;-72
2023/01/28 07:19:43;;;;;;;20.93;11.60;;;;;;;-0.40;100.00;94266.63;6274551;22;20170;-72
2023/01/28 07:22:10;;;;;;;16.33;10.37;;;;;;;-0.39;100.00;94273.34;6274379;22;20173;-72
2023/01/28 07:24:36;;;;;;;18.20;11.37;;;;;;;-0.32;100.00;94273.50;6274599;22;20178;-72
2023/01/28 07:27:03;;;;;;;21.47;12.07;;;;;;;-0.37;100.00;94279.06;6273660;22;20176;-70
2023/01/28 07:29:31;;;;;;;18.03;11.27;;;;;;;-0.46;100.00;94277.47;6274344;22;20250;-71
2023/01/28 07:31:58;;;;;;;18.70;11.47;;;;;;;-0.53;100.00;94276.53;6273647;22;20169;-71
2023/01/28 07:34:25;;;;;;;18.63;11.80;;;;;;;-0.56;100.00;94281.97;6273168;22;20172;-76
2023/01/28 07:36:52;;;;;;;16.97;10.30;;;;;;;-0.49;100.00;94287.22;6273873;22;20178;-73
2023/01/28 07:39:18;;;;;;;21.63;11.87;;;;;;;-0.48;100.00;94283.69;6273537;22;20215;-72
2023/01/28 07:41:46;;;;;;;20.23;11.93;;;;;;;-0.44;100.00;94292.63;6273210;22;20227;-71
2023/01/28 07:44:12;;;;;;;20.10;12.03;;;;;;;-0.41;100.00;94290.56;6273846;22;20224;-72
2023/01/28 07:46:41;;;;;;;19.17;12.47;;;;;;;-0.37;100.00;94296.13;6273924;22;20299;-72
2023/01/28 07:49:07;;;;;;;17.57;11.00;;;;;;;-0.33;100.00;94299.97;6273035;22;20167;-72
2023/01/28 07:51:34;;;;;;;17.33;11.40;;;;;;;-0.38;100.00;94295.34;6274159;22;20169;-72
2023/01/28 07:54:01;;;;;;;20.23;13.17;;;;;;;-0.34;100.00;94299.16;6274603;22;20484;-72
2023/01/28 07:56:30;;;;;;;19.10;10.77;;;;;;;-0.30;100.00;94299.66;6274033;22;20165;-71
2023/01/28 07:58:57;;;;;;;18.67;10.73;;;;;;;-0.29;100.00;94304.56;6273792;22;20173;-72
2023/01/28 08:01:24;;;;;;;21.47;12.23;;;;;;;-0.25;100.00;94308.41;6274226;22;20167;-71
2023/01/28 08:03:52;;;;;;;20.13;12.17;;;;;;;-0.26;100.00;94303.47;6273792;22;20593;-71
2023/01/28 08:06:18;;;;;;;20.50;11.77;;;;;;;-0.16;100.00;94304.09;6274213;22;20263;-73
2023/01/28 08:08:47;;;;;;;21.13;12.37;;;;;;;-0.22;100.00;94309.84;6273509;22;20165;-72
2023/01/28 08:11:14;;;;;;;21.60;12.57;;;;;;;-0.30;100.00;94315.75;6273550;22;20165;-71
2023/01/28 08:13:41;;;;;;;20.33;12.40;;;;;;;-0.27;100.00;94312.88;6273154;22;20638;-71
2023/01/28 08:16:08;;;;;;;19.70;12.00;;;;;;;-0.25;100.00;94321.19;6273512;22;20251;-71
2023/01/28 08:18:34;;;;;;;21.73;13.20;;;;;;;-0.26;100.00;94319.56;6273973;22;20207;-71
2023/01/28 08:21:04;;;;;;;21.93;13.30;;;;;;;-0.18;100.00;94327.25;6273595;22;20504;-71
2023/01/28 08:23:33;;;;;;;19.63;12.17;;;;;;;-0.13;100.00;94319.91;6274106;22;20169;-71
2023/01/28 08:26:06;;;;;;;21.33;12.83;;;;;;;-0.02;100.00;94328.97;6273656;22;20275;-71
2023/01/28 08:28:33;;;;;;;18.23;11.43;;;;;;;0.04;100.00;94330.06;6273186;22;20153;-71
2023/01/28 08:31:00;;;;;;;18.00;11.60;;;;;;;0.02;100.00;94326.91;6273183;22;20162;-72
2023/01/28 08:33:27;;;;;;;16.50;10.27;;;;;;;0.01;100.00;94326.09;6273605;22;20577;-71
2023/01/28 08:35:54;;;;;;;19.13;11.20;;;;;;;-0.01;100.00;94323.72;6273878;22;20260;-72
2023/01/28 08:38:22;;;;;;;18.60;12.17;;;;;;;0.07;100.00;94328.00;6273333;22;20166;-70
2023/01/28 08:40:54;;;;;;;22.40;13.37;;;;;;;0.15;100.00;94327.97;6273385;22;20170;-70
2023/01/28 08:43:21;;;;;;;17.07;11.20;;;;;;;0.22;100.00;94334.03;6273846;22;20158;-72
2023/01/28 08:45:52;;;;;;;23.13;12.27;;;;;;;0.30;100.00;94330.66;6273732;22;20189;-71
2023/01/28 08:48:19;;;;;;;18.93;11.60;;;;;;;0.31;100.00;94327.16;6273545;22;20178;-72
2023/01/28 08:50:46;;;;;;;23.43;12.50;;;;;;;0.32;100.00;94323.63;6272795;22;20169;-70
2023/01/28 08:53:14;;;;;;;18.03;10.67;;;;;;;0.36;100.00;94328.25;6271587;22;20172;-72
2023/01/28 08:55:43;;;;;;;19.27;11.23;;;;;;;0.39;100.00;94337.34;6273239;22;20173;-70
2023/01/28 08:58:12;;;;;;;18.70;11.13;;;;;;;0.47;100.00;94332.22;6272724;22;20169;-72
2023/01/28 09:00:49;;;;;;;18.60;11.97;;;;;;;0.55;100.00;94339.84;6273204;22;20628;-73
2023/01/28 09:03:16;;;;;;;22.37;12.83;;;;;;;0.74;100.00;94339.47;6273376;22;20157;-70
2023/01/28 09:05:43;;;;;;;22.70;12.20;;;;;;;0.80;100.00;94333.69;6273007;22;20204;-71
2023/01/28 09:08:11;;;;;;;19.23;12.10;;;;;;;0.87;100.00;94344.84;6274231;22;20190;-71
2023/01/28 09:10:39;;;;;;;22.37;13.40;;;;;;;0.93;100.00;94343.38;6273549;22;20173;-71
2023/01/28 09:13:09;;;;;;;19.57;11.37;;;;;;;1.06;100.00;94349.56;6273015;22;20257;-72
2023/01/28 09:15:36;;;;;;;20.37;12.30;;;;;;;1.13;100.00;94345.34;6273163;22;20904;-72
2023/01/28 09:18:04;;;;;;;20.87;13.07;;;;;;;1.09;100.00;94353.53;6273122;22;20736;-72
2023/01/28 09:20:32;;;;;;;21.90;12.57;;;;;;;1.04;100.00;94350.66;6272573;22;20238;-72
2023/01/28 09:22:59;;;;;;;23.63;12.83;;;;;;;0.98;100.00;94347.03;6273795;22;20248;-73
2023/01/28 09:25:26;;;;;;;20.70;12.83;;;;;;;1.02;100.00;94350.84;6273222;22;20195;-73
2023/01/28 09:27:53;;;;;;;21.73;13.83;;;;;;;1.09;100.00;94343.31;6272381;22;20182;-73
2023/01/28 09:30:22;;;;;;;22.57;12.63;;;;;;;1.11;100.00;94343.94;6274037;22;20166;-73
2023/01/28 09:32:51;;;;;;;24.93;14.33;;;;;;;1.08;100.00;94346.81;6273039;22;20175;-73
2023/01/28 09:35:18;;;;;;;21.93;13.27;;;;;;;1.13;100.00;94342.00;6273044;22;20250;-72
2023/01/28 09:37:45;;;;;;;24.40;13.60;;;;;;;1.09;100.00;94344.13;6273363;22;20539;-71
2023/01/28 09:40:17;;;;;;;21.83;12.50;;;;;;;1.18;100.00;94342.31;6272778;22;20160;-70
2023/01/28 09:43:02;;;;;;;22.53;12.87;;;;;;;1.06;100.00;94354.69;6272724;22;20164;-70
2023/01/28 09:45:36;;;;;;;20.93;11.97;;;;;;;0.87;100.00;94349.16;6273442;22;20232;-72
2023/01/28 09:48:06;;;;;;;27.87;14.97;;;;;;;0.96;100.00;94340.47;6272961;22;20469;-70
2023/01/28 09:50:38;;;;;;;26.90;15.17;;;;;;;1.05;100.00;94347.97;6272891;22;20565;-71
2023/01/28 09:53:13;;;;;;;21.97;12.30;;;;;;;1.07;100.00;94345.22;6272379;22;20659;-74
2023/01/28 09:55:43;;;;;;;19.93;11.60;;;;;;;1.04;100.00;94345.56;6272122;22;20510;-72
2023/01/28 09:58:14;;;;;;;23.33;14.67;;;;;;;0.93;100.00;94348.50;6269305;22;20168;-72
2023/01/28 10:00:51;;;;;;;27.10;14.63;;;;;;;0.83;100.00;94341.03;6271313;22;20185;-72
2023/01/28 10:03:40;;;;;;;27.90;14.73;;;;;;;0.77;100.00;94343.47;6270414;22;20171;-77
2023/01/28 10:06:21;;;;;;;22.43;12.70;;;;;;;0.79;100.00;94344.88;6272303;22;20169;-75
2023/01/28 10:09:13;;;;;;;18.20;11.67;;;;;;;0.77;100.00;94348.56;6269469;22;20153;-76
2023/01/28 10:11:52;;;;;;;27.57;15.00;;;;;;;0.76;100.00;94340.09;6271750;22;20154;-77
2023/01/28 10:14:31;;;;;;;24.73;14.37;;;;;;;0.74;100.00;94341.22;6273212;22;20177;-74
2023/01/28 10:17:06;;;;;;;22.30;13.13;;;;;;;0.60;100.00;94337.63;6272225;22;20261;-75
2023/01/28 10:19:41;;;;;;;30.63;15.77;;;;;;;0.47;100.00;94327.09;6270567;22;20158;-73
2023/01/28 10:22:13;;;;;;;33.17;16.13;;;;;;;0.57;100.00;94336.19;6271247;22;20247;-75
2023/01/28 10:24:46;;;;;;;24.73;12.63;;;;;;;0.59;100.00;94343.69;6270802;22;20545;-72
2023/01/28 10:27:16;;;;;;;27.20;14.63;;;;;;;0.55;100.00;94330.44;6272290;22;20229;-72
2023/01/28 10:29:45;;;;;;;26.20;14.87;;;;;;;0.67;100.00;94338.53;6273195;22;20168;-70
2023/01/28 10:32:23;;;;;;;24.33;15.60;;;;;;;0.71;100.00;94347.47;6272494;22;20168;-72
2023/01/28 10:34:51;;;;;;;31.10;16.63;;;;;;;0.78;100.00;94345.06;6274130;22;20161;-72
2023/01/28 10:37:18;;;;;;;25.43;14.77;;;;;;;0.70;100.00;94334.84;6273582;22;20170;-72
2023/01/28 10:39:46;;;;;;;19.87;11.77;;;;;;;0.57;100.00;94343.06;6273200;22;20173;-70
2023/01/28 10:42:28;;;;;;;19.00;12.03;;;;;;;0.51;100.00;94341.16;6274461;22;20189;-70
2023/01/28 10:44:59;;;;;;;33.67;14.23;;;;;;;0.41;100.00;94330.31;6274106;22;20778;-71
2023/01/28 10:47:33;;;;;;;24.73;12.93;;;;;;;0.46;100.00;94338.31;6273808;22;20180;-70
2023/01/28 10:50:03;;;;;;;36.93;15.83;;;;;;;0.50;100.00;94335.25;6274581;22;20158;-71
2023/01/28 10:52:30;;;;;;;26.63;15.57;;;;;;;0.53;100.00;94329.00;6274341;22;20240;-69
2023/01/28 10:55:01;;;;;;;21.83;12.67;;;;;;;0.72;100.00;94338.06;6274828;22;20173;-68
2023/01/28 10:57:28;;;;;;;18.10;11.73;;;;;;;0.63;100.00;94327.06;6274690;22;20704;-70
2023/01/28 10:59:56;;;;;;;18.37;11.63;;;;;;;0.61;100.00;94333.31;6274726;22;20173;-70
2023/01/28 11:02:32;;;;;;;21.60;13.17;;;;;;;0.64;100.00;94333.75;6274642;22;20491;-69
2023/01/28 11:05:04;;;;;;;20.60;13.33;;;;;;;0.63;100.00;94331.38;6274864;22;20160;-70
2023/01/28 11:07:31;;;;;;;25.80;13.80;;;;;;;0.62;100.00;94325.47;6274271;22;20239;-69
2023/01/28 11:09:58;;;;;;;22.40;13.53;;;;;;;0.65;100.00;94332.00;6273586;22;20178;-69
2023/01/28 11:12:26;;;;;;;27.23;14.20;;;;;;;0.64;100.00;94333.75;6273223;22;20188;-69
2023/01/28 11:14:55;;;;;;;26.67;16.10;;;;;;;0.74;100.00;94325.88;6274141;22;20189;-69
2023/01/28 11:17:24;;;;;;;25.27;13.77;;;;;;;0.78;100.00;94324.59;6273132;22;20236;-70
2023/01/28 11:19:53;;;;;;;21.33;12.23;;;;;;;0.76;100.00;94329.06;6272865;22;20231;-70
2023/01/28 11:22:26;;;;;;;24.30;13.30;;;;;;;0.77;100.00;94328.91;6273597;22;20484;-71
2023/01/28 11:24:54;;;;;;;19.47;12.80;;;;;;;0.92;100.00;94323.91;6273672;22;20157;-71
2023/01/28 11:27:27;;;;;;;32.60;15.23;;;;;;;1.08;100.00;94324.59;6272813;22;20970;-71
2023/01/28 11:29:56;;;;;;;26.33;15.13;;;;;;;1.18;100.00;94326.97;6272971;22;20606;-72
2023/01/28 11:32:29;;;;;;;34.27;15.83;;;;;;;1.34;100.00;94328.59;6272560;22;20226;-72
2023/01/28 11:34:59;;;;;;;32.40;18.20;;;;;;;1.46;100.00;94324.69;6273841;22;20164;-70
2023/01/28 11:37:28;;;;;;;26.13;14.53;;;;;;;1.60;100.00;94324.75;6273842;22;20577;-71
2023/01/28 11:40:03;;;;;;;18.37;11.37;;;;;;;1.64;100.00;94320.09;6273780;22;20631;-71
2023/01/28 11:42:31;;;;;;;18.30;9.90;;;;;;;1.51;100.00;94322.41;6274000;22;20164;-72
2023/01/28 11:44:58;;;;;;;15.97;9.93;;;;;;;1.40;100.00;94315.13;6274231;22;20169;-71
2023/01/28 11:47:49;;;;;;;16.03;9.60;;;;;;;1.41;100.00;94317.53;6273694;22;20193;-72
2023/01/28 11:50:28;;;;;;;17.63;11.03;;;;;;;1.49;100.00;94316.66;6267033;22;20186;-69
2023/01/28 11:53:08;;;;;;;20.83;11.80;;;;;;;1.53;100.00;94321.25;6273574;22;20798;-70